Terminal Aerodrome Forecast
Issued by NWS Oklahoma City, OK

Home | Current Version | Previous Version | Text Only | Print | Product List | Glossary On
Versions: 1 2 3 4 5 6 7 8 9 10 11 12 13 14 15 16 17 18 19 20 21 22 23 24 25 26 27 28
000
FTUS44 KOUN 061120
TAFOUN
TAF
KOUN 061120Z 0612/0712 18012KT P6SM SCT250
     FM061400 18014G22KT P6SM BKN025
     FM061700 18017G25KT P6SM SCT045
     FM070100 17012KT P6SM FEW060 BKN250
     FM070600 36010KT P6SM VCTS FEW015 BKN070CB=

USA.gov is the U.S. government's official web portal to all federal, state and local government web resources and services.